Time;durP1;ratioP1;P1;durP2;ratioP2;P2;SDS_P1;SDS_P2;PMS_P1;PMS_P2;Temp;Humidity;BMP_temperature;BMP_pressure;BME280_temperature;BME280_humidity;BME280_pressure;Samples;Min_cycle;Max_cycle;Signal;HPM_P1;HPM_P2
2023/06/17 00:00:15;;;;;;;7.77;5.80;;;;;;;;;;4916343;29;20211;-80
2023/06/17 00:02:41;;;;;;;7.97;5.47;;;;;;;;;;4921796;29;20225;-82
2023/06/17 00:05:07;;;;;;;5.30;4.80;;;;;;;;;;4935359;29;20672;-82
2023/06/17 00:07:33;;;;;;;5.50;5.00;;;;;;;;;;4934389;29;20182;-82
2023/06/17 00:10:00;;;;;;;6.93;5.43;;;;;;;;;;4935882;29;20308;-81
2023/06/17 00:12:29;;;;;;;5.70;5.10;;;;;;;;;;4934980;29;20201;-81
2023/06/17 00:14:57;;;;;;;5.30;4.80;;;;;;;;;;4934029;29;20201;-80
2023/06/17 00:17:23;;;;;;;7.77;5.00;;;;;;;;;;4935210;29;20192;-80
2023/06/17 00:19:49;;;;;;;6.37;5.60;;;;;;;;;;4930443;29;20238;-85
2023/06/17 00:22:16;;;;;;;7.00;5.80;;;;;;;;;;4932487;29;20721;-84
2023/06/17 00:24:42;;;;;;;7.13;5.53;;;;;;;;;;4918740;29;20193;-81
2023/06/17 00:27:08;;;;;;;5.73;5.10;;;;;;;;;;4925502;29;20876;-81
2023/06/17 00:29:35;;;;;;;6.30;5.67;;;;;;;;;;4935000;29;20556;-80
2023/06/17 00:32:01;;;;;;;6.67;5.70;;;;;;;;;;4935455;29;20318;-80
2023/06/17 00:34:28;;;;;;;5.53;4.90;;;;;;;;;;4935519;29;20182;-80
2023/06/17 00:36:54;;;;;;;5.87;5.30;;;;;;;;;;4934464;29;20654;-81
2023/06/17 00:39:20;;;;;;;6.73;5.27;;;;;;;;;;4935941;29;20185;-80
2023/06/17 00:41:46;;;;;;;6.40;5.07;;;;;;;;;;4933184;29;20218;-80
2023/06/17 00:44:12;;;;;;;5.20;4.70;;;;;;;;;;4934799;29;20190;-80
2023/06/17 00:46:40;;;;;;;5.30;4.80;;;;;;;;;;4933915;29;20174;-80
2023/06/17 00:49:07;;;;;;;5.77;5.17;;;;;;;;;;4934542;29;20193;-80
2023/06/17 00:51:34;;;;;;;6.03;5.07;;;;;;;;;;4934561;29;20272;-80
2023/06/17 00:54:01;;;;;;;5.37;4.87;;;;;;;;;;4918030;29;20194;-80
2023/06/17 00:56:28;;;;;;;6.73;5.17;;;;;;;;;;4935700;29;20233;-81
2023/06/17 00:58:55;;;;;;;4.97;4.47;;;;;;;;;;4933771;29;20241;-81
2023/06/17 01:01:21;;;;;;;5.57;4.77;;;;;;;;;;4934124;29;20706;-83
2023/06/17 01:03:49;;;;;;;5.70;5.20;;;;;;;;;;4934849;29;20196;-82
2023/06/17 01:06:24;;;;;;;5.77;5.17;;;;;;;;;;4921282;29;20678;-82
2023/06/17 01:09:02;;;;;;;5.80;5.20;;;;;;;;;;4915186;29;20186;-80
2023/06/17 01:11:30;;;;;;;5.47;4.97;;;;;;;;;;4914502;29;20206;-82
2023/06/17 01:13:56;;;;;;;5.40;4.90;;;;;;;;;;4918381;29;20570;-81
2023/06/17 01:16:24;;;;;;;7.33;4.80;;;;;;;;;;4932802;29;20277;-80
2023/06/17 01:18:52;;;;;;;6.53;4.90;;;;;;;;;;4932949;29;20228;-83
2023/06/17 01:21:18;;;;;;;6.60;5.23;;;;;;;;;;4917328;29;20673;-82
2023/06/17 01:23:45;;;;;;;5.30;4.80;;;;;;;;;;4932655;29;20273;-80
2023/06/17 01:26:12;;;;;;;5.67;5.00;;;;;;;;;;4914202;29;20281;-80
2023/06/17 01:28:40;;;;;;;7.83;4.93;;;;;;;;;;4917618;29;20184;-80
2023/06/17 01:31:08;;;;;;;6.00;5.40;;;;;;;;;;4917168;29;20629;-81
2023/06/17 01:33:35;;;;;;;5.70;5.20;;;;;;;;;;4916802;29;20193;-81
2023/06/17 01:36:10;;;;;;;5.73;5.10;;;;;;;;;;4926971;29;20194;-82
2023/06/17 01:38:41;;;;;;;6.87;5.60;;;;;;;;;;4917479;29;20657;-81
2023/06/17 01:41:09;;;;;;;5.73;5.23;;;;;;;;;;4932901;29;20705;-81
2023/06/17 01:43:35;;;;;;;6.33;5.60;;;;;;;;;;4931909;29;20186;-80
2023/06/17 01:46:03;;;;;;;6.17;5.57;;;;;;;;;;4930532;29;20209;-84
2023/06/17 01:48:29;;;;;;;5.83;5.23;;;;;;;;;;4925151;29;20196;-80
2023/06/17 01:50:55;;;;;;;7.33;5.37;;;;;;;;;;4916770;29;20751;-80
2023/06/17 01:53:24;;;;;;;5.50;5.00;;;;;;;;;;4934538;29;20570;-80
2023/06/17 01:55:51;;;;;;;5.73;5.13;;;;;;;;;;4920631;29;20192;-80
2023/06/17 01:58:17;;;;;;;5.33;4.83;;;;;;;;;;4927751;29;20265;-80
2023/06/17 02:00:43;;;;;;;5.87;5.30;;;;;;;;;;4934713;29;20208;-81
2023/06/17 02:03:10;;;;;;;7.27;5.43;;;;;;;;;;4936571;29;20733;-81
2023/06/17 02:05:36;;;;;;;7.47;5.87;;;;;;;;;;4917695;29;20197;-80
2023/06/17 02:08:05;;;;;;;6.07;5.10;;;;;;;;;;4935430;29;20682;-82
2023/06/17 02:10:32;;;;;;;6.67;6.07;;;;;;;;;;4921488;29;20196;-81
2023/06/17 02:13:01;;;;;;;6.50;5.93;;;;;;;;;;4924237;29;20213;-80
2023/06/17 02:15:28;;;;;;;6.40;5.63;;;;;;;;;;4912983;29;20225;-81
2023/06/17 02:17:55;;;;;;;6.57;5.83;;;;;;;;;;4933669;29;20237;-81
2023/06/17 02:20:21;;;;;;;7.07;6.30;;;;;;;;;;4936571;29;20272;-80
2023/06/17 02:22:47;;;;;;;7.37;6.20;;;;;;;;;;4929332;29;20195;-80
2023/06/17 02:25:14;;;;;;;7.83;6.73;;;;;;;;;;4933630;29;20693;-83
2023/06/17 02:27:40;;;;;;;7.73;7.03;;;;;;;;;;4937416;29;20182;-81
2023/06/17 02:30:07;;;;;;;9.87;8.57;;;;;;;;;;4935932;29;20210;-80
2023/06/17 02:32:34;;;;;;;9.03;8.07;;;;;;;;;;4915260;29;20967;-83
2023/06/17 02:35:00;;;;;;;9.00;8.10;;;;;;;;;;4917240;29;20174;-82
2023/06/17 02:37:26;;;;;;;9.00;8.10;;;;;;;;;;4885902;29;20289;-80
2023/06/17 02:39:53;;;;;;;9.40;8.50;;;;;;;;;;4918910;29;20217;-81
2023/06/17 02:42:19;;;;;;;11.40;8.60;;;;;;;;;;4918065;29;20577;-80
2023/06/17 02:44:45;;;;;;;8.90;8.00;;;;;;;;;;4919479;29;20182;-80
2023/06/17 02:47:11;;;;;;;9.77;8.20;;;;;;;;;;4920062;29;20250;-81
2023/06/17 02:49:37;;;;;;;9.73;8.73;;;;;;;;;;4932877;29;20201;-80
2023/06/17 02:52:04;;;;;;;10.97;8.70;;;;;;;;;;4916260;29;20198;-81
2023/06/17 02:54:31;;;;;;;9.67;7.97;;;;;;;;;;4922491;29;20184;-83
2023/06/17 02:56:57;;;;;;;9.30;8.47;;;;;;;;;;4920053;29;20644;-80
2023/06/17 02:59:24;;;;;;;11.47;8.27;;;;;;;;;;4920011;29;20538;-80
2023/06/17 03:01:51;;;;;;;9.13;8.20;;;;;;;;;;4935602;29;20224;-80
2023/06/17 03:04:20;;;;;;;8.33;7.40;;;;;;;;;;4934445;29;20217;-80
2023/06/17 03:06:50;;;;;;;8.97;8.07;;;;;;;;;;4904025;29;20197;-80
2023/06/17 03:09:17;;;;;;;9.37;7.00;;;;;;;;;;4935588;29;20194;-80
2023/06/17 03:11:43;;;;;;;8.47;7.67;;;;;;;;;;4919180;29;20209;-81
2023/06/17 03:14:09;;;;;;;10.10;7.17;;;;;;;;;;4915895;29;20213;-81
2023/06/17 03:16:38;;;;;;;8.00;7.20;;;;;;;;;;4916348;29;20224;-80
2023/06/17 03:19:05;;;;;;;7.77;6.50;;;;;;;;;;4901022;29;20194;-80
2023/06/17 03:21:38;;;;;;;7.93;7.13;;;;;;;;;;4899876;29;20601;-85
2023/06/17 03:24:05;;;;;;;7.30;6.60;;;;;;;;;;4928811;29;20618;-81
2023/06/17 03:26:32;;;;;;;7.87;7.07;;;;;;;;;;4934803;29;20183;-80
2023/06/17 03:28:58;;;;;;;8.53;6.47;;;;;;;;;;4935958;29;20186;-80
2023/06/17 03:31:25;;;;;;;7.23;6.20;;;;;;;;;;4934647;29;20232;-80
2023/06/17 03:33:52;;;;;;;7.60;6.90;;;;;;;;;;4934377;29;20188;-81
2023/06/17 03:36:24;;;;;;;9.57;6.57;;;;;;;;;;4933649;29;20182;-80
2023/06/17 03:38:51;;;;;;;8.07;6.50;;;;;;;;;;4935021;29;20185;-80
2023/06/17 03:41:18;;;;;;;8.27;6.57;;;;;;;;;;4918859;29;20218;-80
2023/06/17 03:43:44;;;;;;;8.23;6.80;;;;;;;;;;4915755;29;20186;-80
2023/06/17 03:46:10;;;;;;;8.57;6.93;;;;;;;;;;4934123;29;20289;-81
2023/06/17 03:48:36;;;;;;;9.03;7.00;;;;;;;;;;4919258;29;20185;-80
2023/06/17 03:51:03;;;;;;;7.80;6.60;;;;;;;;;;4934746;29;20197;-80
2023/06/17 03:53:29;;;;;;;7.60;6.80;;;;;;;;;;4934219;29;20670;-80
2023/06/17 03:55:57;;;;;;;7.57;6.80;;;;;;;;;;4934688;29;20646;-80
2023/06/17 03:58:24;;;;;;;8.57;7.50;;;;;;;;;;4916322;29;20254;-80
2023/06/17 04:00:51;;;;;;;8.63;7.27;;;;;;;;;;4916286;29;20214;-80
2023/06/17 04:03:24;;;;;;;9.33;7.90;;;;;;;;;;4924541;29;20210;-80
2023/06/17 04:05:54;;;;;;;9.50;7.27;;;;;;;;;;4914582;29;20172;-83
2023/06/17 04:08:22;;;;;;;8.57;6.60;;;;;;;;;;4934980;29;20217;-80
2023/06/17 04:10:49;;;;;;;7.27;6.50;;;;;;;;;;4931826;29;20650;-78
2023/06/17 04:13:15;;;;;;;8.67;6.90;;;;;;;;;;4933763;29;20210;-81
2023/06/17 04:15:42;;;;;;;7.63;6.90;;;;;;;;;;4902412;29;20210;-81
2023/06/17 04:18:08;;;;;;;7.60;6.83;;;;;;;;;;4949796;29;20650;-80
2023/06/17 04:20:36;;;;;;;10.03;6.90;;;;;;;;;;4918535;29;20697;-80
2023/06/17 04:23:03;;;;;;;7.23;6.53;;;;;;;;;;4918539;29;20205;-80
2023/06/17 04:25:32;;;;;;;7.50;6.70;;;;;;;;;;4929031;29;20332;-80
2023/06/17 04:28:01;;;;;;;8.70;7.53;;;;;;;;;;4914775;29;20240;-80
2023/06/17 04:30:32;;;;;;;7.97;6.80;;;;;;;;;;4903321;29;20232;-79
2023/06/17 04:33:00;;;;;;;7.83;6.90;;;;;;;;;;4930257;29;20689;-80
2023/06/17 04:35:27;;;;;;;8.57;6.90;;;;;;;;;;4918632;29;20194;-80
2023/06/17 04:37:53;;;;;;;7.23;6.53;;;;;;;;;;4933547;29;20542;-80
2023/06/17 04:40:20;;;;;;;8.13;7.33;;;;;;;;;;4899721;29;20207;-81
2023/06/17 04:42:47;;;;;;;7.73;7.03;;;;;;;;;;4910966;29;20228;-80
2023/06/17 04:45:14;;;;;;;6.97;6.23;;;;;;;;;;4933760;29;20186;-80
2023/06/17 04:47:42;;;;;;;7.13;5.97;;;;;;;;;;4931492;29;20185;-80
2023/06/17 04:50:08;;;;;;;7.07;5.67;;;;;;;;;;4933929;29;20186;-81
2023/06/17 04:52:34;;;;;;;7.57;5.80;;;;;;;;;;4944441;29;20221;-81
2023/06/17 04:55:03;;;;;;;6.93;6.00;;;;;;;;;;4917143;29;20206;-80
2023/06/17 04:57:30;;;;;;;7.67;6.13;;;;;;;;;;4932893;29;20237;-80
2023/06/17 04:59:56;;;;;;;5.80;5.23;;;;;;;;;;4917121;29;20708;-80
2023/06/17 05:02:23;;;;;;;7.77;6.07;;;;;;;;;;4904823;29;20199;-80
2023/06/17 05:04:49;;;;;;;7.77;6.17;;;;;;;;;;4914686;29;20174;-82
2023/06/17 05:07:15;;;;;;;9.17;5.93;;;;;;;;;;4914695;29;20565;-81
2023/06/17 05:09:42;;;;;;;6.90;6.30;;;;;;;;;;4927499;29;20186;-80
2023/06/17 05:12:10;;;;;;;9.03;6.00;;;;;;;;;;4930431;29;20229;-80
2023/06/17 05:14:36;;;;;;;7.93;6.60;;;;;;;;;;4899171;29;20198;-80
2023/06/17 05:17:02;;;;;;;6.57;5.70;;;;;;;;;;4932967;29;20276;-80
2023/06/17 05:19:29;;;;;;;6.47;5.77;;;;;;;;;;4914435;29;20736;-80
2023/06/17 05:21:55;;;;;;;7.90;6.40;;;;;;;;;;4898220;29;20222;-83
2023/06/17 05:24:25;;;;;;;7.47;6.33;;;;;;;;;;4898533;29;20214;-80
2023/06/17 05:26:52;;;;;;;7.40;6.70;;;;;;;;;;4903597;29;20189;-81
2023/06/17 05:29:18;;;;;;;6.97;6.23;;;;;;;;;;4907035;29;20236;-81
2023/06/17 05:31:45;;;;;;;7.43;6.63;;;;;;;;;;4938675;29;20693;-81
2023/06/17 05:34:11;;;;;;;9.43;7.40;;;;;;;;;;4907597;29;20725;-81
2023/06/17 05:36:40;;;;;;;8.10;7.30;;;;;;;;;;4939363;29;20212;-81
2023/06/17 05:39:06;;;;;;;11.27;8.77;;;;;;;;;;4939246;29;20248;-83
2023/06/17 05:41:32;;;;;;;10.27;8.77;;;;;;;;;;4900623;29;20226;-81
2023/06/17 05:43:58;;;;;;;9.50;8.50;;;;;;;;;;4934721;29;20174;-83
2023/06/17 05:46:25;;;;;;;9.33;8.30;;;;;;;;;;4938413;29;20576;-82
2023/06/17 05:48:51;;;;;;;9.60;8.60;;;;;;;;;;4925047;29;20194;-81
2023/06/17 05:51:18;;;;;;;9.80;8.80;;;;;;;;;;4924659;29;20197;-83
2023/06/17 05:53:45;;;;;;;9.80;8.60;;;;;;;;;;4932445;29;20189;-81
2023/06/17 05:56:12;;;;;;;9.43;8.53;;;;;;;;;;4928197;29;20185;-81
2023/06/17 05:58:40;;;;;;;9.77;8.77;;;;;;;;;;4935448;29;20541;-82
2023/06/17 06:01:13;;;;;;;9.53;8.53;;;;;;;;;;4909560;29;20216;-81
2023/06/17 06:03:40;;;;;;;8.37;7.67;;;;;;;;;;4939721;29;20194;-81
2023/06/17 06:06:06;;;;;;;9.80;8.80;;;;;;;;;;4940292;29;20268;-81
2023/06/17 06:08:33;;;;;;;9.33;8.33;;;;;;;;;;4935734;29;20245;-81
2023/06/17 06:11:02;;;;;;;11.77;8.43;;;;;;;;;;4936053;29;20680;-81
2023/06/17 06:13:28;;;;;;;9.50;8.60;;;;;;;;;;4939089;29;20214;-81
2023/06/17 06:15:55;;;;;;;9.77;7.67;;;;;;;;;;4932879;29;20622;-82
2023/06/17 06:18:21;;;;;;;8.50;7.50;;;;;;;;;;4939096;29;20241;-84
2023/06/17 06:20:47;;;;;;;8.83;7.93;;;;;;;;;;4934778;29;20236;-82
2023/06/17 06:23:14;;;;;;;9.33;7.83;;;;;;;;;;4939737;29;20206;-82
2023/06/17 06:25:41;;;;;;;11.93;8.03;;;;;;;;;;4923814;29;20232;-81
2023/06/17 06:28:07;;;;;;;10.33;7.97;;;;;;;;;;4935794;29;20245;-81
2023/06/17 06:30:34;;;;;;;9.13;7.83;;;;;;;;;;4933900;29;20280;-83
2023/06/17 06:33:00;;;;;;;9.47;8.43;;;;;;;;;;4933679;29;20638;-82
2023/06/17 06:35:27;;;;;;;8.57;7.67;;;;;;;;;;4919043;29;20197;-82
2023/06/17 06:37:54;;;;;;;7.80;7.00;;;;;;;;;;4921813;29;20193;-81
2023/06/17 06:40:20;;;;;;;8.70;7.90;;;;;;;;;;4936285;29;20705;-76
2023/06/17 06:42:50;;;;;;;8.80;8.00;;;;;;;;;;4934380;29;20210;-76
2023/06/17 06:45:25;;;;;;;9.50;7.90;;;;;;;;;;4929825;29;20194;-76
2023/06/17 06:47:51;;;;;;;8.30;7.50;;;;;;;;;;4940361;29;20173;-76
2023/06/17 06:50:17;;;;;;;8.10;7.40;;;;;;;;;;4936022;29;20186;-76
2023/06/17 06:52:46;;;;;;;7.90;7.03;;;;;;;;;;4934228;29;20722;-76
2023/06/17 06:55:12;;;;;;;8.47;7.17;;;;;;;;;;4934346;29;20205;-76
2023/06/17 06:57:39;;;;;;;9.43;6.80;;;;;;;;;;4927713;29;20201;-79
2023/06/17 07:00:08;;;;;;;7.90;7.10;;;;;;;;;;4930119;29;20214;-78
2023/06/17 07:02:36;;;;;;;10.00;7.83;;;;;;;;;;4929454;29;20663;-77
2023/06/17 07:05:07;;;;;;;10.70;8.00;;;;;;;;;;4934919;29;20181;-77
2023/06/17 07:07:40;;;;;;;9.03;7.20;;;;;;;;;;4931725;29;20186;-77
2023/06/17 07:10:06;;;;;;;8.23;7.43;;;;;;;;;;4933880;29;20194;-77
2023/06/17 07:12:33;;;;;;;8.50;7.70;;;;;;;;;;4934591;29;20686;-77
2023/06/17 07:14:59;;;;;;;11.70;9.20;;;;;;;;;;4934870;29;20222;-80
2023/06/17 07:17:25;;;;;;;11.03;8.33;;;;;;;;;;4928782;29;20185;-80
2023/06/17 07:19:51;;;;;;;9.17;8.27;;;;;;;;;;4936591;29;20174;-79
2023/06/17 07:22:18;;;;;;;8.83;7.93;;;;;;;;;;4910869;29;20206;-81
2023/06/17 07:24:45;;;;;;;12.50;9.20;;;;;;;;;;4930840;29;20178;-79
2023/06/17 07:27:12;;;;;;;10.83;8.30;;;;;;;;;;4925781;29;20685;-78
2023/06/17 07:29:39;;;;;;;9.70;8.60;;;;;;;;;;4919399;29;20266;-77
2023/06/17 07:32:05;;;;;;;8.93;8.03;;;;;;;;;;4915932;29;20367;-77
2023/06/17 07:34:32;;;;;;;9.57;8.13;;;;;;;;;;4934591;29;20670;-78
2023/06/17 07:36:58;;;;;;;10.63;9.53;;;;;;;;;;4918856;29;20693;-77
2023/06/17 07:39:26;;;;;;;11.17;8.57;;;;;;;;;;4918451;29;20190;-74
2023/06/17 07:41:52;;;;;;;10.60;9.50;;;;;;;;;;4934146;29;20218;-71
2023/06/17 07:44:19;;;;;;;11.77;9.63;;;;;;;;;;4934698;29;20269;-72
2023/06/17 07:46:45;;;;;;;11.27;8.37;;;;;;;;;;4935182;29;20185;-72
2023/06/17 07:49:12;;;;;;;9.20;8.33;;;;;;;;;;4935440;29;20657;-71
2023/06/17 07:51:40;;;;;;;11.63;9.83;;;;;;;;;;4935121;29;20284;-72
2023/06/17 07:54:06;;;;;;;10.17;9.07;;;;;;;;;;4934081;29;20297;-72
2023/06/17 07:56:34;;;;;;;9.87;8.80;;;;;;;;;;4935157;29;20197;-72
2023/06/17 07:59:00;;;;;;;9.97;8.60;;;;;;;;;;4934449;29;20181;-73
2023/06/17 08:01:27;;;;;;;10.00;8.70;;;;;;;;;;4926354;29;20214;-73
2023/06/17 08:03:53;;;;;;;10.17;8.30;;;;;;;;;;4934900;29;20186;-72
2023/06/17 08:06:20;;;;;;;10.37;9.33;;;;;;;;;;4926628;29;20187;-72
2023/06/17 08:08:46;;;;;;;10.00;8.53;;;;;;;;;;4932128;29;20642;-74
2023/06/17 08:11:12;;;;;;;9.93;8.90;;;;;;;;;;4931303;29;20260;-73
2023/06/17 08:13:38;;;;;;;11.97;9.87;;;;;;;;;;4934706;29;20328;-75
2023/06/17 08:16:04;;;;;;;9.10;8.20;;;;;;;;;;4933678;29;20618;-74
2023/06/17 08:18:31;;;;;;;11.30;9.20;;;;;;;;;;4932159;29;20546;-75
2023/06/17 08:20:57;;;;;;;11.13;8.27;;;;;;;;;;4934930;29;20213;-75
2023/06/17 08:23:23;;;;;;;11.60;8.53;;;;;;;;;;4933867;29;20197;-75
2023/06/17 08:25:49;;;;;;;11.27;10.13;;;;;;;;;;4934784;29;20182;-75
2023/06/17 08:28:15;;;;;;;10.83;9.73;;;;;;;;;;4933847;29;20667;-75
2023/06/17 08:30:42;;;;;;;11.10;9.87;;;;;;;;;;4933360;29;20513;-75
2023/06/17 08:33:08;;;;;;;10.87;9.77;;;;;;;;;;4934102;29;20206;-75
2023/06/17 08:35:34;;;;;;;11.37;10.27;;;;;;;;;;4931793;29;20265;-74
2023/06/17 08:38:01;;;;;;;10.50;9.30;;;;;;;;;;4931788;29;20551;-73
2023/06/17 08:40:27;;;;;;;9.27;7.43;;;;;;;;;;4933855;29;20205;-72
2023/06/17 08:42:59;;;;;;;11.80;8.60;;;;;;;;;;4933467;29;20204;-73
2023/06/17 08:45:25;;;;;;;13.73;8.40;;;;;;;;;;4933035;29;20196;-72
2023/06/17 08:47:51;;;;;;;12.80;8.47;;;;;;;;;;4927427;29;20182;-72
2023/06/17 08:50:18;;;;;;;8.53;7.73;;;;;;;;;;4934205;29;20185;-72
2023/06/17 08:52:45;;;;;;;9.50;8.60;;;;;;;;;;4916951;29;20690;-74
2023/06/17 08:55:11;;;;;;;8.80;7.90;;;;;;;;;;4934413;29;20220;-73
2023/06/17 08:57:37;;;;;;;9.57;8.40;;;;;;;;;;4930883;29;20213;-72
2023/06/17 09:00:04;;;;;;;9.33;8.33;;;;;;;;;;4932673;29;20214;-72
2023/06/17 09:02:33;;;;;;;11.07;7.93;;;;;;;;;;4921289;29;20206;-74
2023/06/17 09:04:59;;;;;;;8.67;7.20;;;;;;;;;;4933900;29;20264;-73
2023/06/17 09:07:25;;;;;;;8.00;7.20;;;;;;;;;;4932919;29;20221;-75
2023/06/17 09:09:54;;;;;;;9.33;8.03;;;;;;;;;;4923101;29;20195;-72
2023/06/17 09:12:22;;;;;;;8.67;7.77;;;;;;;;;;4931356;29;20206;-72
2023/06/17 09:14:48;;;;;;;10.47;6.87;;;;;;;;;;4928433;29;20187;-72
2023/06/17 09:17:30;;;;;;;8.30;7.27;;;;;;;;;;4931111;29;20190;-72
2023/06/17 09:20:08;;;;;;;8.20;7.33;;;;;;;;;;4933765;29;20193;-72
2023/06/17 09:22:35;;;;;;;8.13;7.33;;;;;;;;;;4925318;29;20252;-72
2023/06/17 09:25:02;;;;;;;7.43;6.70;;;;;;;;;;4912330;29;20201;-73
2023/06/17 09:27:28;;;;;;;8.03;7.30;;;;;;;;;;4933079;29;20174;-72
2023/06/17 09:30:09;;;;;;;8.07;6.40;;;;;;;;;;4933820;29;20174;-73
2023/06/17 09:32:42;;;;;;;7.73;6.03;;;;;;;;;;4933305;29;20711;-75
2023/06/17 09:35:15;;;;;;;8.63;6.57;;;;;;;;;;4913854;29;20187;-75
2023/06/17 09:38:01;;;;;;;7.43;6.83;;;;;;;;;;4928380;29;20201;-75
2023/06/17 09:40:32;;;;;;;8.47;6.30;;;;;;;;;;4934019;29;20265;-75
2023/06/17 09:43:01;;;;;;;7.20;5.80;;;;;;;;;;4930926;29;20675;-75
2023/06/17 09:45:27;;;;;;;6.93;6.23;;;;;;;;;;4914690;29;20270;-75
2023/06/17 09:47:54;;;;;;;6.70;5.93;;;;;;;;;;4927656;29;20177;-74
2023/06/17 09:50:22;;;;;;;8.03;6.40;;;;;;;;;;4933880;29;20198;-75
2023/06/17 09:52:52;;;;;;;6.57;5.87;;;;;;;;;;4932603;29;20229;-78
2023/06/17 09:55:20;;;;;;;6.73;6.13;;;;;;;;;;4933520;29;20182;-75
2023/06/17 09:57:46;;;;;;;9.37;7.33;;;;;;;;;;4919517;29;20720;-77
2023/06/17 10:00:14;;;;;;;7.80;6.97;;;;;;;;;;4942630;29;20194;-76
2023/06/17 10:02:40;;;;;;;6.00;5.47;;;;;;;;;;4933360;29;20264;-75
2023/06/17 10:05:11;;;;;;;6.50;5.57;;;;;;;;;;4947476;29;20197;-76
2023/06/17 10:07:41;;;;;;;5.53;5.10;;;;;;;;;;4924638;29;20190;-76
2023/06/17 10:10:08;;;;;;;7.10;5.77;;;;;;;;;;4931241;29;20181;-76
2023/06/17 10:12:36;;;;;;;6.97;5.37;;;;;;;;;;4917413;29;20215;-76
2023/06/17 10:15:04;;;;;;;6.30;5.70;;;;;;;;;;4924892;28;20197;-76
2023/06/17 10:17:31;;;;;;;6.60;6.00;;;;;;;;;;4935713;29;20194;-77
2023/06/17 10:19:58;;;;;;;5.80;5.30;;;;;;;;;;4925080;29;20198;-77
2023/06/17 10:22:25;;;;;;;6.87;5.93;;;;;;;;;;4930643;29;20550;-76
2023/06/17 10:24:51;;;;;;;6.60;5.80;;;;;;;;;;4933751;29;20558;-79
2023/06/17 10:27:20;;;;;;;7.37;6.30;;;;;;;;;;4922437;29;20657;-78
2023/06/17 10:29:48;;;;;;;7.40;6.60;;;;;;;;;;4938438;29;20638;-79
2023/06/17 10:32:24;;;;;;;7.50;6.07;;;;;;;;;;4937753;29;20243;-78
2023/06/17 10:35:06;;;;;;;6.70;6.00;;;;;;;;;;4936108;29;20198;-77
2023/06/17 10:37:53;;;;;;;8.80;6.17;;;;;;;;;;4927010;29;20192;-76
2023/06/17 10:40:22;;;;;;;7.00;6.30;;;;;;;;;;4934721;29;20742;-78
2023/06/17 10:43:00;;;;;;;6.10;5.50;;;;;;;;;;4912508;29;20218;-78
2023/06/17 10:45:29;;;;;;;8.37;6.00;;;;;;;;;;4928181;29;20197;-76
2023/06/17 10:48:17;;;;;;;6.57;5.73;;;;;;;;;;4936057;29;20186;-74
2023/06/17 10:50:46;;;;;;;7.73;5.43;;;;;;;;;;4931913;29;20190;-74
2023/06/17 10:53:16;;;;;;;5.87;5.27;;;;;;;;;;4931167;29;20214;-74
2023/06/17 10:55:43;;;;;;;7.40;6.07;;;;;;;;;;4926425;29;20620;-74
2023/06/17 10:58:09;;;;;;;7.33;5.97;;;;;;;;;;4933429;29;20206;-79
2023/06/17 11:00:36;;;;;;;7.50;6.17;;;;;;;;;;4926453;29;20297;-79
2023/06/17 11:03:02;;;;;;;9.07;5.80;;;;;;;;;;4936418;29;20674;-80
2023/06/17 11:05:34;;;;;;;8.67;4.93;;;;;;;;;;4936562;29;20304;-80
2023/06/17 11:08:01;;;;;;;6.33;5.73;;;;;;;;;;4934102;29;20206;-80
2023/06/17 11:10:28;;;;;;;6.87;5.30;;;;;;;;;;4932595;29;20193;-77
2023/06/17 11:12:54;;;;;;;5.93;5.40;;;;;;;;;;4917353;29;20205;-75
2023/06/17 11:15:23;;;;;;;6.37;5.77;;;;;;;;;;4933145;29;20281;-80
2023/06/17 11:18:01;;;;;;;6.20;4.87;;;;;;;;;;4935761;29;20225;-80
2023/06/17 11:20:28;;;;;;;5.57;5.07;;;;;;;;;;4935072;29;20220;-80
2023/06/17 11:22:55;;;;;;;7.37;5.17;;;;;;;;;;4935559;29;20198;-80
2023/06/17 11:25:21;;;;;;;5.67;5.03;;;;;;;;;;4935848;29;20196;-80
2023/06/17 11:27:48;;;;;;;5.40;4.90;;;;;;;;;;4934773;29;20628;-80
2023/06/17 11:30:15;;;;;;;5.80;4.90;;;;;;;;;;4934355;29;20200;-80
2023/06/17 11:32:41;;;;;;;5.50;5.00;;;;;;;;;;4935792;29;20233;-83
2023/06/17 11:35:08;;;;;;;6.83;4.90;;;;;;;;;;4933260;29;20675;-77
2023/06/17 11:37:35;;;;;;;5.30;4.80;;;;;;;;;;4933496;29;20185;-75
2023/06/17 11:40:01;;;;;;;5.13;4.60;;;;;;;;;;4931431;29;20439;-76
2023/06/17 11:42:28;;;;;;;4.97;4.47;;;;;;;;;;4929427;29;20243;-75
2023/06/17 11:44:54;;;;;;;5.53;4.73;;;;;;;;;;4928036;29;20183;-75
2023/06/17 11:47:31;;;;;;;5.70;4.90;;;;;;;;;;4932454;29;20236;-76
2023/06/17 11:49:58;;;;;;;5.50;5.00;;;;;;;;;;4927104;29;20261;-76
2023/06/17 11:52:24;;;;;;;6.00;5.40;;;;;;;;;;4929902;29;20207;-76
2023/06/17 11:54:51;;;;;;;5.27;4.77;;;;;;;;;;4930233;29;20190;-76
2023/06/17 11:57:21;;;;;;;5.73;5.10;;;;;;;;;;4934543;29;20189;-76
2023/06/17 11:59:48;;;;;;;5.50;5.00;;;;;;;;;;4927419;29;20190;-76
2023/06/17 12:02:15;;;;;;;6.27;4.80;;;;;;;;;;4931275;29;20222;-76
2023/06/17 12:04:45;;;;;;;5.60;5.00;;;;;;;;;;4934163;29;20202;-76
2023/06/17 12:07:12;;;;;;;7.40;5.20;;;;;;;;;;4919787;29;20191;-76
2023/06/17 12:09:38;;;;;;;5.17;4.67;;;;;;;;;;4934463;29;20228;-76
2023/06/17 12:12:05;;;;;;;5.07;4.67;;;;;;;;;;4932969;29;20638;-78
2023/06/17 12:14:31;;;;;;;5.20;4.70;;;;;;;;;;4936011;29;20190;-81
2023/06/17 12:16:57;;;;;;;5.60;4.77;;;;;;;;;;4931950;29;20190;-82
2023/06/17 12:19:24;;;;;;;5.20;4.53;;;;;;;;;;4925045;29;20609;-80
2023/06/17 12:21:51;;;;;;;6.53;4.90;;;;;;;;;;4933292;29;20300;-79
2023/06/17 12:24:19;;;;;;;5.10;4.60;;;;;;;;;;4934796;29;20189;-78
2023/06/17 12:26:45;;;;;;;5.27;4.77;;;;;;;;;;4931802;29;20296;-80
2023/06/17 12:29:13;;;;;;;5.90;4.70;;;;;;;;;;4928612;29;20204;-77
2023/06/17 12:31:40;;;;;;;7.47;4.70;;;;;;;;;;4933746;29;20597;-78
2023/06/17 12:34:06;;;;;;;6.57;5.00;;;;;;;;;;4933658;29;20238;-79
2023/06/17 12:36:33;;;;;;;5.63;4.97;;;;;;;;;;4931903;29;20189;-79
2023/06/17 12:39:01;;;;;;;5.53;5.03;;;;;;;;;;4924359;29;20189;-78
2023/06/17 12:41:27;;;;;;;6.60;5.23;;;;;;;;;;4929114;29;20216;-78
2023/06/17 12:43:53;;;;;;;6.37;5.23;;;;;;;;;;4927278;29;20189;-77
2023/06/17 12:46:20;;;;;;;7.87;5.00;;;;;;;;;;4924841;29;20543;-78
2023/06/17 12:48:47;;;;;;;5.27;4.77;;;;;;;;;;4934284;29;20655;-77
2023/06/17 12:51:14;;;;;;;7.87;5.40;;;;;;;;;;4935665;29;20277;-77
2023/06/17 12:53:40;;;;;;;5.53;5.13;;;;;;;;;;4934771;29;20251;-77
2023/06/17 12:56:06;;;;;;;5.63;5.13;;;;;;;;;;4933036;29;20201;-80
2023/06/17 12:58:32;;;;;;;6.20;5.10;;;;;;;;;;4932701;29;20675;-78
2023/06/17 13:00:59;;;;;;;5.47;4.40;;;;;;;;;;4932316;29;20340;-77
2023/06/17 13:03:25;;;;;;;5.87;5.00;;;;;;;;;;4934214;29;20218;-78
2023/06/17 13:05:51;;;;;;;5.37;4.33;;;;;;;;;;4935867;29;20182;-79
2023/06/17 13:08:18;;;;;;;4.50;4.13;;;;;;;;;;4933820;29;20195;-77
2023/06/17 13:10:44;;;;;;;5.50;4.30;;;;;;;;;;4932175;29;20641;-77
2023/06/17 13:13:10;;;;;;;5.53;4.53;;;;;;;;;;4932488;29;20735;-77
2023/06/17 13:15:36;;;;;;;5.80;4.27;;;;;;;;;;4928766;29;20194;-77
2023/06/17 13:18:02;;;;;;;4.70;4.30;;;;;;;;;;4926463;29;20193;-77
2023/06/17 13:20:29;;;;;;;4.93;4.43;;;;;;;;;;4928030;29;20762;-77
2023/06/17 13:22:55;;;;;;;4.80;4.40;;;;;;;;;;4931878;29;20775;-76
2023/06/17 13:25:21;;;;;;;5.13;4.27;;;;;;;;;;4929087;29;20613;-76
2023/06/17 13:27:47;;;;;;;6.97;5.10;;;;;;;;;;4932628;29;20183;-76
2023/06/17 13:30:14;;;;;;;4.93;4.40;;;;;;;;;;4929182;29;20220;-76
2023/06/17 13:32:40;;;;;;;6.23;4.90;;;;;;;;;;4931956;29;20639;-76
2023/06/17 13:35:06;;;;;;;6.87;5.10;;;;;;;;;;4931621;29;20207;-76
2023/06/17 13:37:33;;;;;;;5.60;5.10;;;;;;;;;;4932690;29;20272;-77
2023/06/17 13:39:59;;;;;;;17.57;7.20;;;;;;;;;;4928709;29;20200;-76
2023/06/17 13:42:25;;;;;;;59.33;55.50;;;;;;;;;;4929688;29;20206;-77
2023/06/17 13:44:51;;;;;;;6.63;6.03;;;;;;;;;;4932935;29;20188;-77
2023/06/17 13:47:17;;;;;;;6.30;5.70;;;;;;;;;;4933483;29;20188;-77
2023/06/17 13:49:43;;;;;;;6.27;5.80;;;;;;;;;;4933340;29;20295;-77
2023/06/17 13:52:11;;;;;;;6.60;6.00;;;;;;;;;;4936942;29;20647;-77
2023/06/17 13:54:37;;;;;;;7.83;7.13;;;;;;;;;;4932537;29;20654;-77
2023/06/17 13:57:04;;;;;;;7.70;7.00;;;;;;;;;;4936809;29;20194;-77
2023/06/17 13:59:30;;;;;;;11.47;10.53;;;;;;;;;;4936517;29;20213;-77
2023/06/17 14:01:56;;;;;;;5.83;5.40;;;;;;;;;;4936345;29;20218;-77
2023/06/17 14:04:22;;;;;;;8.37;4.63;;;;;;;;;;4936296;29;20182;-77
2023/06/17 14:06:48;;;;;;;5.37;4.97;;;;;;;;;;4937014;29;20227;-77
2023/06/17 14:09:15;;;;;;;4.75;4.35;;;;;;;;;;4935558;29;20183;-77
2023/06/17 14:11:41;;;;;;;6.07;5.47;;;;;;;;;;4935505;29;20202;-77
2023/06/17 14:14:07;;;;;;;5.97;5.40;;;;;;;;;;4938515;29;20288;-77
2023/06/17 14:16:33;;;;;;;5.63;4.78;;;;;;;;;;4936956;29;20672;-77
2023/06/17 14:19:00;;;;;;;5.28;4.88;;;;;;;;;;4935896;29;20205;-77
2023/06/17 14:21:26;;;;;;;5.70;5.22;;;;;;;;;;4934294;29;20753;-77
2023/06/17 14:23:53;;;;;;;5.22;4.82;;;;;;;;;;4931760;29;20190;-77
2023/06/17 14:26:19;;;;;;;6.05;5.63;;;;;;;;;;4921009;29;20307;-78
2023/06/17 14:28:45;;;;;;;5.00;4.35;;;;;;;;;;4932725;29;20193;-77
2023/06/17 14:31:11;;;;;;;5.40;4.93;;;;;;;;;;4931802;29;20204;-77
2023/06/17 14:33:38;;;;;;;5.47;4.97;;;;;;;;;;4935104;29;20213;-77
2023/06/17 14:36:04;;;;;;;4.77;4.40;;;;;;;;;;4932972;29;21883;-77
2023/06/17 14:38:31;;;;;;;5.25;4.85;;;;;;;;;;4935132;29;20275;-77
2023/06/17 14:40:57;;;;;;;5.35;4.95;;;;;;;;;;4934588;29;20269;-77